Time;durP1;ratioP1;P1;durP2;ratioP2;P2;SDS_P1;SDS_P2;PMS_P1;PMS_P2;Temp;Humidity;BMP_temperature;BMP_pressure;BME280_temperature;BME280_humidity;BME280_pressure;Samples;Min_cycle;Max_cycle;Signal;HPM_P1;HPM_P2
2023/04/22 00:02:11;;;;;;;11.18;7.43;;;13.90;99.90;;;;;;5071988;28;20479;-76
2023/04/22 00:04:37;;;;;;;9.35;7.25;;;13.90;99.90;;;;;;5078582;28;20415;-76
2023/04/22 00:07:03;;;;;;;11.68;7.43;;;13.90;99.90;;;;;;5079460;28;20406;-76
2023/04/22 00:09:28;;;;;;;12.03;8.07;;;13.90;99.90;;;;;;5069128;28;20447;-76
2023/04/22 00:11:54;;;;;;;11.77;7.70;;;13.90;99.90;;;;;;5070903;28;20777;-76
2023/04/22 00:14:20;;;;;;;11.75;8.15;;;13.90;99.90;;;;;;5088964;28;20406;-76
2023/04/22 00:16:46;;;;;;;8.80;7.30;;;13.80;99.90;;;;;;5087558;28;20518;-76
2023/04/22 00:19:11;;;;;;;11.00;7.93;;;13.80;99.90;;;;;;5087789;28;20421;-76
2023/04/22 00:21:37;;;;;;;9.15;7.72;;;13.80;99.90;;;;;;5086781;28;20481;-75
2023/04/22 00:24:03;;;;;;;9.73;7.77;;;13.70;99.90;;;;;;5087520;28;20394;-76
2023/04/22 00:26:28;;;;;;;9.23;8.10;;;13.70;99.90;;;;;;5085576;28;20903;-76
2023/04/22 00:28:54;;;;;;;9.07;7.97;;;13.60;99.90;;;;;;5086848;28;21068;-76
2023/04/22 00:31:19;;;;;;;10.32;8.25;;;13.60;99.90;;;;;;5066731;28;20430;-76
2023/04/22 00:33:45;;;;;;;11.70;8.30;;;13.60;99.90;;;;;;5087340;28;20803;-76
2023/04/22 00:36:10;;;;;;;10.30;8.43;;;13.60;99.90;;;;;;5084458;28;20398;-76
2023/04/22 00:38:36;;;;;;;11.37;8.87;;;13.50;99.90;;;;;;5086008;28;20405;-76
2023/04/22 00:41:02;;;;;;;10.55;8.88;;;13.40;99.90;;;;;;5082727;28;20412;-76
2023/04/22 00:43:27;;;;;;;12.33;8.97;;;13.40;99.90;;;;;;5086197;28;20398;-76
2023/04/22 00:45:53;;;;;;;11.60;8.37;;;13.30;99.90;;;;;;5084008;28;21222;-76
2023/04/22 00:48:18;;;;;;;10.88;8.45;;;13.30;99.90;;;;;;5085806;28;20402;-76
2023/04/22 00:50:44;;;;;;;13.13;8.97;;;13.20;99.90;;;;;;5065392;28;20414;-76
2023/04/22 00:53:10;;;;;;;12.35;8.40;;;13.10;99.90;;;;;;5085674;28;20390;-76
2023/04/22 00:55:36;;;;;;;10.68;8.80;;;13.00;99.90;;;;;;5064308;28;20410;-76
2023/04/22 00:58:03;;;;;;;11.00;8.53;;;13.00;99.90;;;;;;5084291;28;20425;-75
2023/04/22 01:00:29;;;;;;;11.52;8.35;;;13.00;99.90;;;;;;5082074;28;20430;-76
2023/04/22 01:02:55;;;;;;;11.23;8.70;;;13.00;99.90;;;;;;5084032;28;20406;-76
2023/04/22 01:05:23;;;;;;;11.50;9.27;;;13.00;99.90;;;;;;5081742;28;20414;-76
2023/04/22 01:07:49;;;;;;;10.93;9.13;;;12.90;99.90;;;;;;5050792;28;20439;-75
2023/04/22 01:10:15;;;;;;;12.45;9.10;;;12.90;99.90;;;;;;5060473;28;20402;-76
2023/04/22 01:12:41;;;;;;;10.27;8.68;;;12.90;99.90;;;;;;5094778;28;20409;-75
2023/04/22 01:15:07;;;;;;;10.63;9.23;;;12.90;99.90;;;;;;5068257;28;20408;-76
2023/04/22 01:17:34;;;;;;;12.83;9.83;;;12.90;99.90;;;;;;5083613;28;20439;-76
2023/04/22 01:20:00;;;;;;;11.63;9.35;;;12.90;99.90;;;;;;5069333;28;20929;-76
2023/04/22 01:22:28;;;;;;;11.35;9.45;;;12.90;99.90;;;;;;5087158;28;20401;-76
2023/04/22 01:24:54;;;;;;;11.70;9.45;;;12.90;99.90;;;;;;5088848;28;20402;-76
2023/04/22 01:27:19;;;;;;;11.80;9.77;;;13.00;99.90;;;;;;5087215;28;20405;-76
2023/04/22 01:29:46;;;;;;;11.85;9.52;;;13.00;99.90;;;;;;5068180;28;20816;-76
2023/04/22 01:32:12;;;;;;;12.32;9.68;;;13.00;99.90;;;;;;5087005;28;20446;-76
2023/04/22 01:34:37;;;;;;;11.65;10.00;;;12.90;99.90;;;;;;5085535;28;20770;-76
2023/04/22 01:37:04;;;;;;;11.63;9.50;;;12.80;99.90;;;;;;5087223;28;20957;-76
2023/04/22 01:39:30;;;;;;;12.93;9.75;;;12.80;99.90;;;;;;5085844;28;20396;-76
2023/04/22 01:41:57;;;;;;;12.18;9.27;;;12.80;99.90;;;;;;5087026;28;20467;-76
2023/04/22 01:44:23;;;;;;;13.07;9.37;;;12.80;99.90;;;;;;5068442;28;20412;-76
2023/04/22 01:46:48;;;;;;;11.60;9.07;;;12.70;99.90;;;;;;5069470;28;20416;-76
2023/04/22 01:49:14;;;;;;;11.65;9.65;;;12.80;99.90;;;;;;5086491;28;20404;-76
2023/04/22 01:51:40;;;;;;;11.67;9.23;;;12.80;99.90;;;;;;5086923;28;20398;-75
2023/04/22 01:54:05;;;;;;;12.18;9.43;;;12.80;99.90;;;;;;5086120;28;20396;-76
2023/04/22 01:56:31;;;;;;;13.20;9.63;;;12.80;99.90;;;;;;5068053;28;20962;-76
2023/04/22 01:58:56;;;;;;;12.23;9.60;;;12.80;99.90;;;;;;5084254;28;20411;-76
2023/04/22 02:01:22;;;;;;;11.43;9.45;;;12.70;99.90;;;;;;5069816;28;20402;-76
2023/04/22 02:03:47;;;;;;;10.90;9.70;;;12.70;99.90;;;;;;5083789;28;20403;-76
2023/04/22 02:06:13;;;;;;;13.40;10.02;;;12.70;99.90;;;;;;5086274;28;20911;-76
2023/04/22 02:08:39;;;;;;;11.83;9.57;;;12.60;99.90;;;;;;5059963;28;20508;-76
2023/04/22 02:11:04;;;;;;;10.75;8.63;;;12.60;99.90;;;;;;5091398;28;20402;-76
2023/04/22 02:13:38;;;;;;;10.67;8.60;;;12.60;99.90;;;;;;5087948;28;20401;-76
2023/04/22 02:16:04;;;;;;;9.67;8.57;;;12.60;99.90;;;;;;5071495;28;20905;-76
2023/04/22 02:18:30;;;;;;;10.55;8.82;;;12.60;99.90;;;;;;5072004;28;20419;-75
2023/04/22 02:20:56;;;;;;;12.90;9.43;;;12.60;99.90;;;;;;5071450;28;20446;-76
2023/04/22 02:23:22;;;;;;;13.18;8.88;;;12.60;99.90;;;;;;5071984;28;20799;-76
2023/04/22 02:25:51;;;;;;;10.88;9.00;;;12.60;99.90;;;;;;5071567;28;20408;-76
2023/04/22 02:28:18;;;;;;;12.35;9.13;;;12.50;99.90;;;;;;5071614;28;20493;-76
2023/04/22 02:30:46;;;;;;;11.02;9.02;;;12.50;99.90;;;;;;5087313;28;20407;-76
2023/04/22 02:33:12;;;;;;;10.23;8.65;;;12.50;99.90;;;;;;5070697;28;20427;-75
2023/04/22 02:35:38;;;;;;;10.18;8.40;;;12.40;99.90;;;;;;5063912;28;20416;-76
2023/04/22 02:38:04;;;;;;;12.67;8.90;;;12.40;99.90;;;;;;5039124;28;20450;-76
2023/04/22 02:40:29;;;;;;;11.15;9.10;;;12.40;99.90;;;;;;5075981;28;20532;-76
2023/04/22 02:42:55;;;;;;;10.85;9.00;;;12.30;99.90;;;;;;5066656;28;20415;-75
2023/04/22 02:45:21;;;;;;;11.07;8.97;;;12.30;99.90;;;;;;5081222;28;20413;-76
2023/04/22 02:47:47;;;;;;;11.15;9.00;;;12.30;99.90;;;;;;5088688;28;20403;-76
2023/04/22 02:50:12;;;;;;;13.17;8.77;;;12.20;99.90;;;;;;5088989;28;20414;-76
2023/04/22 02:52:38;;;;;;;11.73;9.13;;;12.20;99.90;;;;;;5090180;28;21125;-76
2023/04/22 02:55:05;;;;;;;12.10;9.20;;;12.10;99.90;;;;;;5072236;28;20481;-76
2023/04/22 02:57:30;;;;;;;11.18;9.75;;;12.10;99.90;;;;;;5087039;28;20958;-76
2023/04/22 02:59:56;;;;;;;11.67;9.50;;;12.10;99.90;;;;;;5070926;28;20429;-76
2023/04/22 03:02:22;;;;;;;11.77;10.10;;;12.00;99.90;;;;;;5069148;28;20572;-76
2023/04/22 03:04:47;;;;;;;12.63;9.75;;;11.90;99.90;;;;;;5102964;28;20908;-76
2023/04/22 03:07:13;;;;;;;13.73;9.87;;;11.90;99.90;;;;;;5087175;28;20406;-76
2023/04/22 03:09:39;;;;;;;14.02;9.75;;;11.90;99.90;;;;;;5073984;28;20399;-76
2023/04/22 03:12:05;;;;;;;12.90;9.77;;;11.80;99.90;;;;;;5070714;28;20830;-76
2023/04/22 03:14:30;;;;;;;10.77;9.67;;;11.80;99.90;;;;;;5070188;28;20410;-76
2023/04/22 03:16:56;;;;;;;13.02;10.73;;;11.70;99.90;;;;;;5070574;28;20931;-76
2023/04/22 03:19:21;;;;;;;11.60;10.37;;;11.60;99.90;;;;;;5070599;28;20406;-76
2023/04/22 03:21:47;;;;;;;12.32;10.00;;;11.60;99.90;;;;;;5068236;28;20410;-76
2023/04/22 03:24:13;;;;;;;11.33;10.07;;;11.50;99.90;;;;;;5064002;28;20406;-76
2023/04/22 03:26:38;;;;;;;12.75;10.02;;;11.40;99.90;;;;;;5069826;28;20406;-76
2023/04/22 03:29:04;;;;;;;12.53;10.23;;;11.30;99.90;;;;;;5086694;28;20402;-76
2023/04/22 03:31:30;;;;;;;12.45;9.95;;;11.30;99.90;;;;;;5067969;28;20467;-76
2023/04/22 03:33:55;;;;;;;12.70;9.87;;;11.20;99.90;;;;;;5090666;28;20917;-76
2023/04/22 03:36:21;;;;;;;13.10;10.75;;;11.20;99.90;;;;;;5067404;28;20413;-76
2023/04/22 03:38:47;;;;;;;13.03;10.13;;;11.10;99.90;;;;;;5051747;28;21033;-76
2023/04/22 03:41:12;;;;;;;12.63;10.07;;;11.10;99.90;;;;;;5100985;28;20409;-76
2023/04/22 03:43:38;;;;;;;13.07;9.30;;;11.10;99.90;;;;;;5057427;28;20404;-76
2023/04/22 03:46:04;;;;;;;12.82;9.60;;;11.00;99.90;;;;;;5086647;28;20835;-76
2023/04/22 03:48:34;;;;;;;12.63;9.37;;;11.00;99.90;;;;;;5070452;28;20475;-76
2023/04/22 03:51:00;;;;;;;12.37;9.40;;;11.10;99.90;;;;;;5086263;28;20406;-76
2023/04/22 03:53:26;;;;;;;11.77;9.23;;;11.10;99.90;;;;;;5069897;28;20417;-76
2023/04/22 03:55:51;;;;;;;12.43;9.17;;;11.10;99.90;;;;;;5087482;28;20402;-76
2023/04/22 03:58:17;;;;;;;12.77;9.40;;;11.10;99.90;;;;;;5088108;28;20989;-76
2023/04/22 04:00:43;;;;;;;11.67;9.37;;;11.20;99.90;;;;;;5068842;28;20410;-76
2023/04/22 04:03:09;;;;;;;13.43;9.85;;;11.20;99.90;;;;;;5103691;28;20402;-76
2023/04/22 04:05:35;;;;;;;12.80;9.48;;;11.20;99.90;;;;;;5086960;28;20410;-76
2023/04/22 04:08:01;;;;;;;12.00;9.55;;;11.30;99.90;;;;;;5103342;28;20410;-76
2023/04/22 04:10:27;;;;;;;11.52;9.88;;;11.30;99.90;;;;;;5087457;28;20624;-76
2023/04/22 04:12:53;;;;;;;11.77;9.73;;;11.30;99.90;;;;;;5075355;28;21137;-76
2023/04/22 04:15:20;;;;;;;12.50;9.83;;;11.30;99.90;;;;;;5087142;28;20395;-76
2023/04/22 04:17:46;;;;;;;14.25;9.57;;;11.20;99.90;;;;;;5102712;28;20433;-76
2023/04/22 04:20:13;;;;;;;10.93;9.73;;;11.30;99.90;;;;;;5102479;28;20405;-76
2023/04/22 04:22:39;;;;;;;14.20;9.82;;;11.20;99.90;;;;;;5087575;28;20398;-76
2023/04/22 04:25:05;;;;;;;14.65;10.27;;;11.20;99.90;;;;;;5086888;28;20402;-76
2023/04/22 04:27:31;;;;;;;12.65;9.82;;;11.20;99.90;;;;;;5086819;28;21121;-76
2023/04/22 04:29:57;;;;;;;11.90;9.82;;;11.20;99.90;;;;;;5086128;28;20477;-76
2023/04/22 04:32:23;;;;;;;13.03;10.27;;;11.20;99.90;;;;;;5074208;28;20735;-76
2023/04/22 04:34:49;;;;;;;12.32;10.45;;;11.20;99.90;;;;;;5083996;28;20501;-76
2023/04/22 04:37:15;;;;;;;12.25;10.18;;;11.20;99.90;;;;;;5079969;28;20457;-76
2023/04/22 04:39:42;;;;;;;12.77;9.90;;;11.10;99.90;;;;;;5067164;28;20409;-76
2023/04/22 04:42:08;;;;;;;11.57;10.20;;;11.10;99.90;;;;;;5101876;28;20827;-76
2023/04/22 04:44:34;;;;;;;13.32;10.35;;;11.10;99.90;;;;;;5050385;28;20403;-76
2023/04/22 04:47:01;;;;;;;12.87;10.20;;;11.10;99.90;;;;;;5054212;28;20409;-76
2023/04/22 04:49:29;;;;;;;12.88;9.68;;;11.10;99.90;;;;;;5067461;28;20418;-76
2023/04/22 04:51:56;;;;;;;13.30;9.77;;;11.10;99.90;;;;;;5057459;28;20420;-76
2023/04/22 04:54:21;;;;;;;12.77;9.85;;;11.10;99.90;;;;;;5087161;28;20411;-76
2023/04/22 04:56:47;;;;;;;12.52;9.80;;;11.10;99.90;;;;;;5056074;28;20422;-76
2023/04/22 04:59:13;;;;;;;12.30;9.90;;;11.10;99.90;;;;;;5087167;28;20412;-76
2023/04/22 05:01:38;;;;;;;13.45;10.30;;;11.10;99.90;;;;;;5037986;28;20437;-76
2023/04/22 05:04:04;;;;;;;13.63;10.05;;;11.10;99.90;;;;;;5070232;28;20400;-76
2023/04/22 05:06:31;;;;;;;14.07;10.00;;;11.10;99.90;;;;;;5069347;28;20402;-76
2023/04/22 05:08:57;;;;;;;11.27;9.80;;;11.10;99.90;;;;;;5069921;28;20897;-76
2023/04/22 05:11:23;;;;;;;11.90;9.98;;;11.10;99.90;;;;;;5054156;28;20421;-76
2023/04/22 05:13:48;;;;;;;12.88;9.60;;;11.10;99.90;;;;;;5069491;28;20750;-76
2023/04/22 05:16:14;;;;;;;11.93;10.00;;;11.10;99.90;;;;;;5069096;28;20398;-76
2023/04/22 05:18:40;;;;;;;11.90;10.50;;;11.20;99.90;;;;;;5066194;28;20435;-76
2023/04/22 05:21:05;;;;;;;13.10;10.77;;;11.20;99.90;;;;;;5051324;28;20972;-76
2023/04/22 05:23:31;;;;;;;12.65;10.55;;;11.20;99.90;;;;;;5068391;28;20396;-76
2023/04/22 05:25:57;;;;;;;12.67;10.80;;;11.20;99.90;;;;;;5050088;28;20400;-76
2023/04/22 05:28:23;;;;;;;11.48;10.05;;;11.30;99.90;;;;;;5083460;28;20440;-76
2023/04/22 05:30:48;;;;;;;11.38;9.88;;;11.30;99.90;;;;;;5083810;28;20936;-76
2023/04/22 05:33:14;;;;;;;11.87;10.27;;;11.30;99.90;;;;;;5083788;28;20948;-76
2023/04/22 05:35:40;;;;;;;12.38;10.25;;;11.30;99.90;;;;;;5033484;28;20443;-76
2023/04/22 05:38:06;;;;;;;12.77;9.70;;;11.40;99.90;;;;;;5067908;28;20430;-76
2023/04/22 05:40:32;;;;;;;10.93;9.63;;;11.30;99.90;;;;;;5067261;28;20811;-76
2023/04/22 05:42:57;;;;;;;14.82;10.60;;;11.40;99.90;;;;;;5082293;28;20453;-75
2023/04/22 05:45:23;;;;;;;12.02;9.85;;;11.40;99.90;;;;;;5068395;28;20766;-76
2023/04/22 05:47:48;;;;;;;16.53;10.57;;;11.40;99.90;;;;;;5088839;28;20487;-76
2023/04/22 05:50:14;;;;;;;12.68;10.63;;;11.40;99.90;;;;;;5088667;28;20886;-76
2023/04/22 05:52:40;;;;;;;15.67;10.00;;;11.40;99.90;;;;;;5089291;28;20884;-76
2023/04/22 05:55:06;;;;;;;13.20;10.27;;;11.50;99.90;;;;;;5089794;28;20389;-76
2023/04/22 05:57:31;;;;;;;13.18;10.02;;;11.50;99.90;;;;;;5069942;28;20448;-76
2023/04/22 05:59:59;;;;;;;13.10;10.13;;;11.60;99.90;;;;;;5087983;28;21180;-76
2023/04/22 06:02:24;;;;;;;14.10;10.45;;;11.60;99.90;;;;;;5087219;28;20410;-76
2023/04/22 06:04:50;;;;;;;13.55;10.05;;;11.60;99.90;;;;;;5087433;28;20405;-76
2023/04/22 06:07:16;;;;;;;12.50;10.57;;;11.70;99.90;;;;;;5070448;28;20400;-76
2023/04/22 06:09:41;;;;;;;13.55;9.65;;;11.80;99.90;;;;;;5070303;28;20422;-76
2023/04/22 06:12:07;;;;;;;12.40;10.10;;;11.80;99.90;;;;;;5084551;28;20413;-76
2023/04/22 06:14:33;;;;;;;12.52;9.45;;;11.80;99.90;;;;;;5067767;28;20402;-75
2023/04/22 06:16:58;;;;;;;10.80;9.67;;;11.90;99.90;;;;;;5062095;28;20827;-76
2023/04/22 06:19:24;;;;;;;13.10;9.63;;;11.90;99.90;;;;;;5062766;28;20438;-76
2023/04/22 06:21:49;;;;;;;11.33;9.70;;;11.90;99.90;;;;;;5099358;28;20433;-76
2023/04/22 06:24:15;;;;;;;11.35;9.55;;;12.00;99.90;;;;;;5085186;28;20484;-76
2023/04/22 06:26:40;;;;;;;11.10;9.47;;;12.00;99.90;;;;;;5065570;28;20976;-76
2023/04/22 06:29:06;;;;;;;13.63;9.88;;;12.10;99.90;;;;;;5085662;28;20405;-76
2023/04/22 06:31:32;;;;;;;11.40;9.70;;;12.10;99.90;;;;;;5079347;28;20408;-76
2023/04/22 06:33:58;;;;;;;11.23;9.48;;;12.10;99.90;;;;;;5094617;28;20397;-76
2023/04/22 06:36:25;;;;;;;13.10;9.82;;;12.20;99.90;;;;;;5080358;28;20404;-76
2023/04/22 06:38:50;;;;;;;12.10;10.13;;;12.20;99.90;;;;;;5084167;28;20477;-76
2023/04/22 06:41:16;;;;;;;12.88;10.10;;;12.20;99.90;;;;;;5086496;28;20408;-76
2023/04/22 06:43:42;;;;;;;12.25;9.77;;;12.30;99.90;;;;;;5052651;28;20444;-76
2023/04/22 06:46:08;;;;;;;13.47;9.90;;;12.30;99.90;;;;;;5068736;28;20500;-76
2023/04/22 06:48:33;;;;;;;13.40;10.27;;;12.30;99.90;;;;;;5054129;28;20391;-76
2023/04/22 06:51:00;;;;;;;10.87;9.73;;;12.30;99.90;;;;;;5057960;28;20397;-76
2023/04/22 06:53:26;;;;;;;14.25;9.82;;;12.40;99.90;;;;;;5104805;28;20969;-76
2023/04/22 06:55:53;;;;;;;12.25;9.60;;;12.50;99.90;;;;;;5101172;28;20421;-76
2023/04/22 06:58:19;;;;;;;12.35;9.75;;;12.50;99.90;;;;;;5092229;28;20453;-76
2023/04/22 07:00:45;;;;;;;12.60;10.20;;;12.60;99.90;;;;;;5063045;28;20917;-76
2023/04/22 07:03:11;;;;;;;13.18;9.70;;;12.60;99.90;;;;;;5081859;28;20402;-76
2023/04/22 07:05:37;;;;;;;12.33;10.00;;;12.70;99.90;;;;;;5097122;28;20838;-76
2023/04/22 07:08:02;;;;;;;14.15;9.85;;;12.70;99.90;;;;;;5082541;28;20481;-76
2023/04/22 07:10:28;;;;;;;12.87;10.47;;;12.80;99.90;;;;;;5082441;28;20406;-76
2023/04/22 07:12:53;;;;;;;16.90;10.65;;;12.80;99.90;;;;;;5076179;28;20427;-77
2023/04/22 07:15:19;;;;;;;15.83;10.43;;;12.90;99.90;;;;;;5067594;28;20433;-76
2023/04/22 07:17:45;;;;;;;12.55;9.65;;;13.00;99.90;;;;;;5067934;28;20435;-76
2023/04/22 07:20:10;;;;;;;14.10;9.80;;;13.00;99.90;;;;;;5057761;28;20448;-76
2023/04/22 07:22:36;;;;;;;11.52;9.57;;;13.00;99.90;;;;;;5059944;28;20411;-76
2023/04/22 07:25:02;;;;;;;11.87;9.50;;;13.10;99.90;;;;;;5080696;28;21180;-76
2023/04/22 07:27:28;;;;;;;11.95;9.63;;;13.10;99.90;;;;;;5077774;28;20784;-76
2023/04/22 07:29:54;;;;;;;11.83;10.00;;;13.20;99.90;;;;;;5060580;28;20398;-76
2023/04/22 07:32:19;;;;;;;11.53;9.63;;;13.20;99.90;;;;;;5057820;28;20415;-76
2023/04/22 07:34:45;;;;;;;11.40;9.32;;;13.30;99.90;;;;;;5078268;28;20451;-76
2023/04/22 07:37:11;;;;;;;10.98;9.35;;;13.40;99.90;;;;;;5052104;28;20459;-76
2023/04/22 07:39:36;;;;;;;11.63;10.20;;;13.40;99.90;;;;;;5087470;28;20418;-76
2023/04/22 07:42:02;;;;;;;11.40;9.50;;;13.50;99.90;;;;;;5060029;28;20402;-77
2023/04/22 07:44:28;;;;;;;13.97;10.40;;;13.60;99.90;;;;;;5075065;28;20402;-77
2023/04/22 07:46:54;;;;;;;14.73;10.80;;;13.70;99.90;;;;;;5088514;28;20466;-76
2023/04/22 07:49:20;;;;;;;10.80;9.20;;;13.70;99.90;;;;;;5087254;28;20745;-76
2023/04/22 07:51:45;;;;;;;12.57;10.10;;;13.80;99.90;;;;;;5076411;28;20425;-76
2023/04/22 07:54:11;;;;;;;12.52;10.20;;;13.90;99.90;;;;;;5086081;28;20394;-77
2023/04/22 07:56:37;;;;;;;14.65;10.48;;;13.90;99.90;;;;;;5087880;28;20394;-74
2023/04/22 07:59:03;;;;;;;12.00;9.60;;;14.00;99.90;;;;;;5085568;28;20903;-75
2023/04/22 08:01:28;;;;;;;10.77;9.68;;;14.10;99.90;;;;;;5088160;28;20436;-73
2023/04/22 08:03:55;;;;;;;12.97;10.00;;;14.20;99.90;;;;;;5077635;28;20419;-73
2023/04/22 08:06:21;;;;;;;11.97;10.20;;;14.30;99.90;;;;;;5068535;28;20438;-73
2023/04/22 08:08:47;;;;;;;13.30;10.27;;;14.30;99.90;;;;;;5080432;28;20907;-73
2023/04/22 08:11:12;;;;;;;12.13;9.40;;;14.50;99.90;;;;;;5074500;28;20403;-73
2023/04/22 08:13:38;;;;;;;11.55;9.60;;;14.60;99.90;;;;;;5069912;28;20416;-73
2023/04/22 08:16:06;;;;;;;13.23;9.40;;;14.80;99.90;;;;;;5068657;28;20407;-73
2023/04/22 08:18:31;;;;;;;12.43;9.77;;;14.80;99.90;;;;;;5061288;28;20960;-73
2023/04/22 08:20:57;;;;;;;14.53;9.67;;;14.90;99.90;;;;;;5067805;28;20404;-74
2023/04/22 08:23:24;;;;;;;11.32;9.35;;;14.90;99.90;;;;;;5071202;28;20497;-74
2023/04/22 08:25:50;;;;;;;11.07;9.80;;;15.00;99.90;;;;;;5056959;28;20415;-73
2023/04/22 08:28:16;;;;;;;12.65;9.20;;;15.10;99.90;;;;;;5082247;28;20398;-74
2023/04/22 08:30:42;;;;;;;9.77;8.77;;;15.30;99.90;;;;;;5078348;28;20414;-74
2023/04/22 08:33:07;;;;;;;10.40;8.35;;;15.40;99.90;;;;;;5070750;28;20431;-74
2023/04/22 08:35:34;;;;;;;9.53;8.50;;;15.40;99.90;;;;;;5074010;28;20411;-74
2023/04/22 08:38:00;;;;;;;9.37;8.37;;;15.60;99.90;;;;;;5062430;28;20486;-73
2023/04/22 08:40:27;;;;;;;10.02;8.38;;;15.60;99.90;;;;;;5082447;28;21086;-73
2023/04/22 08:42:53;;;;;;;9.48;8.45;;;15.70;99.90;;;;;;5072353;28;20529;-74
2023/04/22 08:45:20;;;;;;;11.20;7.77;;;15.80;99.90;;;;;;5050075;28;20446;-73
2023/04/22 08:47:47;;;;;;;11.48;8.82;;;15.80;99.90;;;;;;5074981;28;20409;-74
2023/04/22 08:50:13;;;;;;;9.57;7.90;;;15.90;99.90;;;;;;5092234;28;20489;-74
2023/04/22 08:52:41;;;;;;;9.90;8.13;;;15.90;99.90;;;;;;5045720;28;20963;-74
2023/04/22 08:55:07;;;;;;;9.65;7.53;;;16.00;99.90;;;;;;5089153;28;20439;-73
2023/04/22 08:57:35;;;;;;;11.32;8.13;;;16.10;99.90;;;;;;5083577;28;20426;-74
2023/04/22 09:00:03;;;;;;;11.35;8.38;;;16.20;99.90;;;;;;5051875;28;20510;-74
2023/04/22 09:02:32;;;;;;;9.80;7.73;;;16.30;99.90;;;;;;5089934;28;20467;-74
2023/04/22 09:05:00;;;;;;;9.20;7.90;;;16.30;99.90;;;;;;5073472;28;21273;-73
2023/04/22 09:07:30;;;;;;;9.38;8.10;;;16.30;99.90;;;;;;5098340;28;20485;-74
2023/04/22 09:09:57;;;;;;;9.98;7.90;;;16.40;99.90;;;;;;5070677;28;20922;-74
2023/04/22 09:12:24;;;;;;;9.93;7.78;;;16.50;99.90;;;;;;5055931;28;20481;-73
2023/04/22 09:14:50;;;;;;;9.55;7.88;;;16.60;99.90;;;;;;5069562;28;21050;-74
2023/04/22 09:17:17;;;;;;;9.20;7.50;;;16.70;99.90;;;;;;5069526;28;20430;-72
2023/04/22 09:19:43;;;;;;;10.75;7.95;;;16.90;99.90;;;;;;5068934;28;20404;-73
2023/04/22 09:22:14;;;;;;;9.88;7.65;;;17.00;99.90;;;;;;5084775;28;20433;-73
2023/04/22 09:24:49;;;;;;;10.48;7.15;;;17.40;99.90;;;;;;5050399;28;20545;-74
2023/04/22 09:27:16;;;;;;;9.73;7.13;;;17.90;99.90;;;;;;5051719;28;20835;-74
2023/04/22 09:29:50;;;;;;;7.47;6.65;;;18.50;99.90;;;;;;5052327;28;20087;-74
2023/04/22 09:32:16;;;;;;;10.57;7.32;;;19.00;99.90;;;;;;5067002;28;20056;-74
2023/04/22 09:34:48;;;;;;;;;;;19.40;99.90;;;;;;5033449;28;20053;-74
2023/04/22 09:37:13;;;;;;;;;;;19.70;99.90;;;;;;5041565;28;19921;-74
2023/04/22 09:39:41;;;;;;;;;;;20.00;99.90;;;;;;5087068;28;20311;-74
2023/04/22 09:42:06;;;;;;;;;;;20.40;99.90;;;;;;5056783;28;19924;-74
2023/04/22 09:44:34;;;;;;;18.48;6.22;;;20.70;99.90;;;;;;5053807;28;20447;-74
2023/04/22 09:46:59;;;;;;;9.48;6.70;;;20.90;99.90;;;;;;5041750;28;20550;-74
2023/04/22 09:49:26;;;;;;;8.27;6.70;;;21.10;99.90;;;;;;5051907;28;20408;-74
2023/04/22 09:51:58;;;;;;;7.57;6.45;;;21.20;99.90;;;;;;5054973;28;20422;-74
2023/04/22 09:54:24;;;;;;;9.03;6.77;;;21.30;99.90;;;;;;5044892;28;20829;-74
2023/04/22 09:56:52;;;;;;;7.28;6.57;;;21.50;99.90;;;;;;5047743;28;20409;-74
2023/04/22 09:59:22;;;;;;;8.77;6.38;;;21.70;99.90;;;;;;5051216;28;20500;-75
2023/04/22 10:01:51;;;;;;;7.53;6.07;;;22.00;99.90;;;;;;5055451;28;20422;-74
2023/04/22 10:04:20;;;;;;;6.90;5.70;;;22.30;97.20;;;;;;5060980;28;21158;-75
2023/04/22 10:06:46;;;;;;;6.70;5.40;;;22.60;95.00;;;;;;5044439;28;20775;-74
2023/04/22 10:09:13;;;;;;;12.30;6.20;;;22.60;96.30;;;;;;5044387;28;20423;-74
2023/04/22 10:11:40;;;;;;;8.90;5.68;;;22.50;96.60;;;;;;5046219;28;20421;-73
2023/04/22 10:14:09;;;;;;;7.03;6.03;;;22.30;95.60;;;;;;5061283;28;20408;-73
2023/04/22 10:16:36;;;;;;;7.65;6.38;;;22.00;96.00;;;;;;5051613;28;20418;-73
2023/04/22 10:19:05;;;;;;;7.40;5.80;;;21.80;96.70;;;;;;5052882;28;20411;-74
2023/04/22 10:21:32;;;;;;;7.15;5.93;;;21.70;95.90;;;;;;5049394;28;20998;-74
2023/04/22 10:23:58;;;;;;;8.07;5.67;;;21.50;95.70;;;;;;5059360;28;20400;-74
2023/04/22 10:26:57;;;;;;;7.60;5.88;;;21.60;96.40;;;;;;5050452;28;20407;-74
2023/04/22 10:29:25;;;;;;;5.82;5.20;;;21.70;96.10;;;;;;5055968;28;20417;-74
2023/04/22 10:32:24;;;;;;;6.97;5.53;;;21.90;96.70;;;;;;5054802;28;20411;-73
2023/04/22 10:35:09;;;;;;;6.53;5.50;;;22.30;93.70;;;;;;5072856;28;20449;-73
2023/04/22 10:37:35;;;;;;;7.75;5.00;;;22.30;93.50;;;;;;5074674;28;20438;-74
2023/04/22 10:40:15;;;;;;;6.10;4.80;;;22.40;93.30;;;;;;5071889;28;20483;-73
2023/04/22 10:42:52;;;;;;;6.53;5.35;;;22.60;93.00;;;;;;5068657;28;20443;-74
2023/04/22 10:45:17;;;;;;;;;;;22.70;91.20;;;;;;5036466;28;20041;-74
2023/04/22 10:47:43;;;;;;;;;;;22.90;92.10;;;;;;5077661;28;19920;-74
2023/04/22 10:50:09;;;;;;;;;;;23.10;91.50;;;;;;5038952;28;19924;-74
2023/04/22 10:52:34;;;;;;;;;;;23.30;90.50;;;;;;5073625;28;19943;-74
2023/04/22 10:55:00;;;;;;;;;;;23.60;90.10;;;;;;5069109;28;19971;-74
2023/04/22 10:57:36;;;;;;;;;;;23.80;88.70;;;;;;5072797;28;19936;-74
2023/04/22 11:00:25;;;;;;;;;;;23.90;85.40;;;;;;5079523;28;19924;-78
2023/04/22 11:03:06;;;;;;;;;;;23.90;84.70;;;;;;5062584;28;19981;-74
2023/04/22 11:05:34;;;;;;;;;;;23.90;87.40;;;;;;5064685;28;19920;-74
2023/04/22 11:08:19;;;;;;;4.53;3.40;;;24.00;84.70;;;;;;5064434;28;20303;-74
2023/04/22 11:10:48;;;;;;;5.22;3.47;;;23.90;86.50;;;;;;5063970;28;20491;-73
2023/04/22 11:13:19;;;;;;;4.85;3.50;;;23.90;84.20;;;;;;5080046;28;20452;-73
2023/04/22 11:15:48;;;;;;;4.10;3.33;;;23.90;83.30;;;;;;5084016;28;20465;-74
2023/04/22 11:18:16;;;;;;;;;;;24.10;84.10;;;;;;5095448;28;20131;-73
2023/04/22 11:20:41;;;;;;;;;;;24.40;85.10;;;;;;5079880;28;19924;-74
2023/04/22 11:23:07;;;;;;;;;;;24.60;81.30;;;;;;5078512;28;20424;-74
2023/04/22 11:25:33;;;;;;;;;;;24.70;82.80;;;;;;5080353;28;19921;-74
2023/04/22 11:27:58;;;;;;;;;;;24.80;82.50;;;;;;5072535;28;19920;-74
2023/04/22 11:30:25;;;;;;;;;;;24.90;82.10;;;;;;5067153;28;19920;-74
2023/04/22 11:32:51;;;;;;;;;;;25.00;80.70;;;;;;5075651;28;19955;-74
2023/04/22 11:35:18;;;;;;;;;;;25.00;80.00;;;;;;5084556;28;19974;-74
2023/04/22 11:37:45;;;;;;;;;;;25.10;79.30;;;;;;5078333;28;19927;-74
2023/04/22 11:40:12;;;;;;;;;;;25.10;78.90;;;;;;5065817;28;20011;-74
2023/04/22 11:42:38;;;;;;;;;;;25.30;80.10;;;;;;5076026;28;19920;-74
2023/04/22 11:45:04;;;;;;;;;;;25.40;78.90;;;;;;5080740;28;20374;-74
2023/04/22 11:47:30;;;;;;;;;;;25.50;76.50;;;;;;5078806;28;19920;-74
2023/04/22 11:50:13;;;;;;;;;;;25.40;78.00;;;;;;5089527;28;20400;-74
2023/04/22 11:52:45;;;;;;;;;;;25.60;77.00;;;;;;5084373;28;20412;-74
2023/04/22 11:55:14;;;;;;;;;;;25.60;78.30;;;;;;5079165;28;20285;-74
2023/04/22 11:57:39;;;;;;;;;;;25.50;76.00;;;;;;5087460;28;19970;-74
2023/04/22 12:00:06;;;;;;;;;;;25.30;76.60;;;;;;5102902;28;19923;-74
2023/04/22 12:02:32;;;;;;;;;;;25.30;76.20;;;;;;5058592;28;20420;-74
2023/04/22 12:04:58;;;;;;;;;;;25.30;74.40;;;;;;5087371;28;20015;-74
2023/04/22 12:07:26;;;;;;;5.07;2.85;;;25.30;74.80;;;;;;5081662;28;19920;-74
2023/04/22 12:09:55;;;;;;;3.85;2.78;;;25.50;74.40;;;;;;5081849;28;20124;-74
2023/04/22 12:12:27;;;;;;;4.00;2.50;;;25.40;74.90;;;;;;5066639;28;20536;-74
2023/04/22 12:14:52;;;;;;;3.70;2.90;;;25.20;74.40;;;;;;5062478;28;20408;-74
2023/04/22 12:17:24;;;;;;;3.90;3.10;;;25.00;75.20;;;;;;5083071;28;20877;-74
2023/04/22 12:19:54;;;;;;;4.22;3.10;;;25.20;75.70;;;;;;5070372;28;20462;-74
2023/04/22 12:22:26;;;;;;;;;;;25.60;75.40;;;;;;5084232;28;20071;-74
2023/04/22 12:24:52;;;;;;;;;;;26.00;76.00;;;;;;5072464;28;19939;-74
2023/04/22 12:27:18;;;;;;;;;;;26.00;73.20;;;;;;5084059;28;19966;-74
2023/04/22 12:29:52;;;;;;;;;;;25.90;72.30;;;;;;5083220;28;19932;-74
2023/04/22 12:32:18;;;;;;;;;;;25.70;72.90;;;;;;5085732;28;19924;-74
2023/04/22 12:34:44;;;;;;;;;;;25.50;72.50;;;;;;5084119;28;19920;-73
2023/04/22 12:37:10;;;;;;;;;;;25.30;72.40;;;;;;5081729;28;19935;-73
2023/04/22 12:39:37;;;;;;;;;;;25.20;72.50;;;;;;5074841;28;20318;-73
2023/04/22 12:42:04;;;;;;;;;;;25.10;74.00;;;;;;5103777;28;20027;-73
2023/04/22 12:44:30;;;;;;;;;;;25.00;73.50;;;;;;5053439;28;19938;-73
2023/04/22 12:46:56;;;;;;;;;;;24.80;73.50;;;;;;5097912;28;19924;-73
2023/04/22 12:49:22;;;;;;;;;;;24.60;74.30;;;;;;5075920;28;19932;-73